createdAt,value
2018-02-03T00:00:50.649Z,2.99
2018-02-03T00:03:18.830Z,2.85
2018-02-03T00:05:47.020Z,2.73
2018-02-03T00:08:15.241Z,2.68
2018-02-03T00:10:43.414Z,2.70
2018-02-03T00:13:11.584Z,2.78
2018-02-03T00:15:39.762Z,2.98
2018-02-03T00:18:08.007Z,2.90
2018-02-03T00:20:36.954Z,2.90
2018-02-03T00:23:05.142Z,2.80
2018-02-03T00:25:33.318Z,2.90
2018-02-03T00:28:01.544Z,2.86
2018-02-03T00:30:29.730Z,2.76
2018-02-03T00:32:57.909Z,2.66
2018-02-03T00:35:26.092Z,2.61
2018-02-03T00:37:54.273Z,2.75
2018-02-03T00:40:23.220Z,2.64
2018-02-03T00:42:51.422Z,2.62
2018-02-03T00:45:19.592Z,2.82
2018-02-03T00:47:47.750Z,2.72
2018-02-03T00:50:15.923Z,2.72
2018-02-03T00:52:44.125Z,2.67
2018-02-03T00:55:12.308Z,2.71
2018-02-03T00:57:40.474Z,2.70
2018-02-03T01:00:08.639Z,2.69
2018-02-03T01:02:36.801Z,2.68
2018-02-03T01:05:04.966Z,2.69
2018-02-03T01:07:33.169Z,2.69
2018-02-03T01:10:01.330Z,2.72
2018-02-03T01:12:29.497Z,2.74
2018-02-03T01:14:57.708Z,2.75
2018-02-03T01:17:25.885Z,2.74
2018-02-03T01:19:54.057Z,2.75
2018-02-03T01:22:22.253Z,2.78
2018-02-03T01:24:50.417Z,2.78
2018-02-03T01:27:18.613Z,2.82
2018-02-03T01:29:46.835Z,2.81
2018-02-03T01:32:15.012Z,2.78
2018-02-03T01:34:43.198Z,2.81
2018-02-03T01:37:11.362Z,2.83
2018-02-03T01:39:39.545Z,2.84
2018-02-03T01:42:07.757Z,2.90
2018-02-03T01:44:35.951Z,2.95
2018-02-03T01:47:04.900Z,2.94
2018-02-03T01:49:33.058Z,3.01
2018-02-03T01:52:01.239Z,3.03
2018-02-03T01:54:29.424Z,3.06
2018-02-03T01:56:58.385Z,3.06
2018-02-03T01:59:26.546Z,3.08
2018-02-03T02:01:55.483Z,3.07
2018-02-03T02:04:23.658Z,3.08
2018-02-03T02:06:51.878Z,3.07
2018-02-03T02:09:20.109Z,3.06
2018-02-03T02:11:48.313Z,3.11
2018-02-03T02:14:16.504Z,3.12
2018-02-03T02:16:45.461Z,3.08
2018-02-03T02:19:13.626Z,3.06
2018-02-03T02:21:41.790Z,3.13
2018-02-03T02:24:09.950Z,3.06
2018-02-03T02:26:38.109Z,3.03
2018-02-03T02:29:06.282Z,3.06
2018-02-03T02:31:34.454Z,3.03
2018-02-03T02:34:02.662Z,3.00
2018-02-03T02:36:30.834Z,2.99
2018-02-03T02:38:59.000Z,2.95
2018-02-03T02:41:27.194Z,2.95
2018-02-03T02:43:55.393Z,2.94
2018-02-03T02:46:23.558Z,2.95
2018-02-03T02:48:51.745Z,2.95
2018-02-03T02:51:19.931Z,2.91
2018-02-03T02:53:48.872Z,2.95
2018-02-03T02:56:17.061Z,2.96
2018-02-03T02:58:45.246Z,2.95
2018-02-03T03:01:13.450Z,2.85
2018-02-03T03:03:41.617Z,2.86
2018-02-03T03:06:10.577Z,2.82
2018-02-03T03:08:38.737Z,2.92
2018-02-03T03:11:06.912Z,2.76
2018-02-03T03:13:35.106Z,2.61
2018-02-03T03:16:03.277Z,2.64
2018-02-03T03:18:31.452Z,2.59
2018-02-03T03:20:59.622Z,2.61
2018-02-03T03:23:27.794Z,2.55
2018-02-03T03:25:55.956Z,2.61
2018-02-03T03:28:24.114Z,2.58
2018-02-03T03:30:52.310Z,2.58
2018-02-03T03:33:20.505Z,2.70
2018-02-03T03:35:48.696Z,2.58
2018-02-03T03:38:16.872Z,2.60
2018-02-03T03:40:45.051Z,2.69
2018-02-03T03:43:13.220Z,2.73
2018-02-03T03:45:41.386Z,2.72
2018-02-03T03:48:09.597Z,2.70
2018-02-03T03:50:38.530Z,2.72
2018-02-03T03:53:06.702Z,2.69
2018-02-03T03:55:34.890Z,2.64
2018-02-03T03:58:03.063Z,2.59
2018-02-03T04:00:31.232Z,2.61
2018-02-03T04:02:59.411Z,2.67
2018-02-03T04:05:27.601Z,2.59
2018-02-03T04:07:55.773Z,2.68
2018-02-03T04:10:23.952Z,2.58
2018-02-03T04:12:52.130Z,2.57
2018-02-03T04:15:20.318Z,2.59
2018-02-03T04:17:48.513Z,2.58
2018-02-03T04:20:17.443Z,2.63
2018-02-03T04:22:45.641Z,2.66
2018-02-03T04:25:13.822Z,2.64
2018-02-03T04:27:41.977Z,2.68
2018-02-03T04:30:10.151Z,2.69
2018-02-03T04:32:38.332Z,2.70
2018-02-03T04:35:06.498Z,2.70
2018-02-03T04:37:34.662Z,2.69
2018-02-03T04:40:02.828Z,2.70
2018-02-03T04:42:31.037Z,2.73
2018-02-03T04:44:59.205Z,2.71
2018-02-03T04:47:27.361Z,2.70
2018-02-03T04:49:55.540Z,2.81
2018-02-03T04:52:23.713Z,2.79
2018-02-03T04:54:51.878Z,2.80
2018-02-03T04:57:20.066Z,2.76
2018-02-03T04:59:48.229Z,2.73
2018-02-03T05:02:16.386Z,2.73
2018-02-03T05:04:44.582Z,2.81
2018-02-03T05:07:12.773Z,2.70
2018-02-03T05:09:40.946Z,2.64
2018-02-03T05:12:09.106Z,2.52
2018-02-03T05:14:37.274Z,2.40
2018-02-03T05:17:05.438Z,2.36
2018-02-03T05:19:33.629Z,2.31
2018-02-03T05:22:01.795Z,2.28
2018-02-03T05:24:30.186Z,2.30
2018-02-03T05:26:58.366Z,2.29
2018-02-03T05:29:26.543Z,2.33
2018-02-03T05:31:54.707Z,2.38
2018-02-03T05:34:22.885Z,2.37
2018-02-03T05:36:51.054Z,2.26
2018-02-03T05:39:19.251Z,2.22
2018-02-03T05:41:47.429Z,2.22
2018-02-03T05:44:16.405Z,2.19
2018-02-03T05:46:44.598Z,2.23
2018-02-03T05:49:12.788Z,2.21
2018-02-03T05:51:40.963Z,2.18
2018-02-03T05:54:09.133Z,2.14
2018-02-03T05:56:37.297Z,2.12
2018-02-03T05:59:05.470Z,2.15
2018-02-03T06:01:33.637Z,2.15
2018-02-03T06:04:01.804Z,2.10
2018-02-03T06:06:29.968Z,2.11
2018-02-03T06:08:58.136Z,2.14
2018-02-03T06:11:26.329Z,2.13
2018-02-03T06:13:54.504Z,2.18
2018-02-03T06:16:22.667Z,2.14
2018-02-03T06:18:50.831Z,2.20
2018-02-03T06:21:19.015Z,2.23
2018-02-03T06:23:47.218Z,2.20
2018-02-03T06:26:15.437Z,2.23
2018-02-03T06:28:43.606Z,2.24
2018-02-03T06:31:11.782Z,2.20
2018-02-03T06:33:39.980Z,2.14
2018-02-03T06:36:08.141Z,2.12
2018-02-03T06:38:36.329Z,2.08
2018-02-03T06:41:04.497Z,2.08
2018-02-03T06:43:32.674Z,2.12
2018-02-03T06:46:00.852Z,2.06
2018-02-03T06:48:29.092Z,2.03
2018-02-03T06:50:58.037Z,2.05
2018-02-03T06:53:26.490Z,2.14
2018-02-03T06:55:54.688Z,2.12
2018-02-03T06:58:22.866Z,2.14
2018-02-03T07:00:51.033Z,2.16
2018-02-03T07:03:19.232Z,2.26
2018-02-03T07:05:47.430Z,2.21
2018-02-03T07:08:15.618Z,2.17
2018-02-03T07:10:44.567Z,2.22
2018-02-03T07:13:12.735Z,2.23
2018-02-03T07:15:40.953Z,2.24
2018-02-03T07:18:09.145Z,2.30
2018-02-03T07:20:37.378Z,2.36
2018-02-03T07:23:05.601Z,2.35
2018-02-03T07:25:33.848Z,2.39
2018-02-03T07:28:02.803Z,2.45
2018-02-03T07:30:31.428Z,2.50
2018-02-03T07:32:59.626Z,2.56
2018-02-03T07:35:27.802Z,2.58
2018-02-03T07:37:56.015Z,2.64
2018-02-03T07:40:24.182Z,2.71
2018-02-03T07:42:52.349Z,2.72
2018-02-03T07:45:20.546Z,2.74
2018-02-03T07:47:48.764Z,2.80
2018-02-03T07:50:17.699Z,2.77
2018-02-03T07:52:45.939Z,2.78
2018-02-03T07:55:14.938Z,2.77
2018-02-03T07:57:43.145Z,2.77
2018-02-03T08:00:11.357Z,2.80
2018-02-03T08:02:39.558Z,3.04
2018-02-03T08:05:08.497Z,2.89
2018-02-03T08:07:36.666Z,2.84
2018-02-03T08:10:04.897Z,2.73
2018-02-03T08:12:33.872Z,2.74
2018-02-03T08:15:02.153Z,2.79
2018-02-03T08:17:31.093Z,2.80
2018-02-03T08:19:59.266Z,2.90
2018-02-03T08:22:27.455Z,2.93
2018-02-03T08:24:55.651Z,3.00
2018-02-03T08:27:23.902Z,3.10
2018-02-03T08:29:52.118Z,3.17
2018-02-03T08:32:20.311Z,3.11
2018-02-03T08:34:49.272Z,3.13
2018-02-03T08:37:17.504Z,3.15
2018-02-03T08:39:45.732Z,3.18
2018-02-03T08:42:13.961Z,3.24
2018-02-03T08:44:42.182Z,3.30
2018-02-03T08:47:10.386Z,3.29
2018-02-03T08:49:38.587Z,3.30
2018-02-03T08:52:06.900Z,3.32
2018-02-03T08:54:35.073Z,3.32
2018-02-03T08:57:03.266Z,3.32
2018-02-03T08:59:31.505Z,3.42
2018-02-03T09:01:59.744Z,3.41
2018-02-03T09:04:27.957Z,3.40
2018-02-03T09:06:56.130Z,3.36
2018-02-03T09:09:25.081Z,3.43
2018-02-03T09:12:12.735Z,3.42
2018-02-03T09:14:40.922Z,3.44
2018-02-03T09:17:09.143Z,3.52
2018-02-03T09:19:37.337Z,3.54
2018-02-03T09:22:06.332Z,3.61
2018-02-03T09:24:35.277Z,3.69
2018-02-03T09:27:03.501Z,3.78
2018-02-03T09:29:32.470Z,3.76
2018-02-03T09:32:00.659Z,3.73
2018-02-03T09:34:29.587Z,3.77
2018-02-03T09:36:57.777Z,3.73
2018-02-03T09:39:26.243Z,3.69
2018-02-03T09:41:54.456Z,3.79
2018-02-03T09:44:22.645Z,3.77
2018-02-03T09:46:50.825Z,3.84
2018-02-03T09:49:19.788Z,3.77
2018-02-03T09:51:47.965Z,3.76
2018-02-03T09:54:16.185Z,3.73
2018-02-03T09:56:45.153Z,3.71
2018-02-03T09:59:13.330Z,3.76
2018-02-03T10:01:41.517Z,3.79
2018-02-03T10:04:10.511Z,3.79
2018-02-03T10:06:39.506Z,3.77
2018-02-03T10:09:08.463Z,3.77
2018-02-03T10:11:36.665Z,3.80
2018-02-03T10:14:05.648Z,3.80
2018-02-03T10:16:33.849Z,3.85
2018-02-03T10:19:02.826Z,3.86
2018-02-03T10:21:31.829Z,3.84
2018-02-03T10:24:00.806Z,3.88
2018-02-03T10:26:29.058Z,3.93
2018-02-03T10:28:57.261Z,3.99
2018-02-03T10:31:25.446Z,4.00
2018-02-03T10:33:54.444Z,3.77
2018-02-03T10:36:23.448Z,3.91
2018-02-03T10:38:51.710Z,3.70
2018-02-03T10:41:20.678Z,3.81
2018-02-03T10:43:48.895Z,3.48
2018-02-03T10:46:17.138Z,3.61
2018-02-03T10:48:45.343Z,3.63
2018-02-03T10:51:14.333Z,3.51
2018-02-03T10:53:43.311Z,3.61
2018-02-03T10:56:12.302Z,3.49
2018-02-03T10:58:40.520Z,3.44
2018-02-03T11:01:10.623Z,3.44
2018-02-03T11:03:38.874Z,3.45
2018-02-03T11:06:08.847Z,3.55
2018-02-03T11:08:37.058Z,3.54
2018-02-03T11:11:05.242Z,3.60
2018-02-03T11:13:34.210Z,3.67
2018-02-03T11:16:02.425Z,3.73
2018-02-03T11:18:31.378Z,3.77
2018-02-03T11:20:59.599Z,3.80
2018-02-03T11:23:28.592Z,3.87
2018-02-03T11:25:56.811Z,3.98
2018-02-03T11:28:25.014Z,4.06
2018-02-03T11:30:53.223Z,4.20
2018-02-03T11:33:21.420Z,4.36
2018-02-03T11:35:49.607Z,4.29
2018-02-03T11:38:17.893Z,4.29
2018-02-03T11:40:46.071Z,4.31
2018-02-03T11:43:14.492Z,3.69
2018-02-03T11:45:43.445Z,3.68
2018-02-03T11:48:11.710Z,3.72
2018-02-03T11:50:40.689Z,3.58
2018-02-03T11:53:08.865Z,3.62
2018-02-03T11:55:37.091Z,3.63
2018-02-03T11:58:05.277Z,3.66
2018-02-03T12:00:34.268Z,3.80
2018-02-03T12:03:03.256Z,3.94
2018-02-03T12:05:32.240Z,4.03
2018-02-03T12:08:00.443Z,4.11
2018-02-03T12:10:28.664Z,4.26
2018-02-03T12:12:56.853Z,4.43
2018-02-03T12:15:25.125Z,4.41
2018-02-03T12:17:53.404Z,4.51
2018-02-03T12:20:21.597Z,4.59
2018-02-03T12:22:49.811Z,4.48
2018-02-03T12:25:18.023Z,4.33
2018-02-03T12:27:46.212Z,4.66
2018-02-03T12:30:14.415Z,4.64
2018-02-03T12:32:46.235Z,4.80
2018-02-03T12:35:18.418Z,4.50
2018-02-03T12:37:46.616Z,4.52
2018-02-03T12:40:15.564Z,4.66
2018-02-03T12:42:43.769Z,4.86
2018-02-03T12:45:11.986Z,4.84
2018-02-03T12:47:40.197Z,5.17
2018-02-03T12:50:08.398Z,5.59
2018-02-03T12:52:36.642Z,6.26
2018-02-03T12:55:04.854Z,6.90
2018-02-03T12:57:33.825Z,8.07
2018-02-03T13:00:02.030Z,9.86
2018-02-03T13:02:30.990Z,11.64
2018-02-03T13:04:59.246Z,13.61
2018-02-03T13:07:27.454Z,15.43
2018-02-03T13:09:55.672Z,16.93
2018-02-03T13:12:23.856Z,18.63
2018-02-03T13:14:52.047Z,19.67
2018-02-03T13:17:20.258Z,19.90
2018-02-03T13:19:48.465Z,21.72
2018-02-03T13:22:16.771Z,21.96
2018-02-03T13:24:44.986Z,17.80
2018-02-03T13:27:13.190Z,17.16
2018-02-03T13:29:42.131Z,17.54
2018-02-03T13:32:10.351Z,19.56
2018-02-03T13:34:39.309Z,20.97
2018-02-03T13:37:07.546Z,20.09
2018-02-03T13:39:52.070Z,18.16
2018-02-03T13:42:21.054Z,16.81
2018-02-03T13:44:49.253Z,17.88
2018-02-03T13:47:18.207Z,18.35
2018-02-03T13:49:46.446Z,17.53
2018-02-03T13:52:14.617Z,16.62
2018-02-03T13:54:51.915Z,14.94
2018-02-03T13:57:25.302Z,13.66
2018-02-03T13:59:53.787Z,12.57
2018-02-03T14:02:21.974Z,11.77
2018-02-03T14:04:50.291Z,11.07
2018-02-03T14:07:20.706Z,10.32
2018-02-03T14:09:49.701Z,9.77
2018-02-03T14:12:17.899Z,8.93
2018-02-03T14:14:46.880Z,8.28
2018-02-03T14:17:15.101Z,8.11
2018-02-03T14:19:43.331Z,7.94
2018-02-03T14:22:12.362Z,7.74
2018-02-03T14:24:46.300Z,7.54
2018-02-03T14:27:14.517Z,7.43
2018-02-03T14:29:43.621Z,7.08
2018-02-03T14:32:12.640Z,6.78
2018-02-03T14:34:40.869Z,6.63
2018-02-03T14:37:09.094Z,6.29
2018-02-03T14:39:37.298Z,6.16
2018-02-03T14:42:05.534Z,5.92
2018-02-03T14:44:33.757Z,5.63
2018-02-03T14:47:01.941Z,5.48
2018-02-03T14:49:30.144Z,5.49
2018-02-03T14:51:59.116Z,5.53
2018-02-03T14:54:27.646Z,5.29
2018-02-03T14:56:55.860Z,5.18
2018-02-03T14:59:24.073Z,5.18
2018-02-03T15:01:53.143Z,5.30
2018-02-03T16:20:19.076Z,3.56
2018-02-03T16:22:47.351Z,3.59
2018-02-03T16:25:15.577Z,3.62
2018-02-03T16:27:43.799Z,3.71
2018-02-03T16:30:12.136Z,3.67
2018-02-03T16:32:40.338Z,3.65
2018-02-03T16:35:08.513Z,3.63
2018-02-03T16:37:36.758Z,3.62
2018-02-03T16:40:04.999Z,3.59
2018-02-03T16:42:33.230Z,3.61
2018-02-03T16:45:01.458Z,3.55
2018-02-03T16:47:29.663Z,3.60
2018-02-03T16:49:57.883Z,3.52
2018-02-03T16:52:26.157Z,3.32
2018-02-03T16:54:54.442Z,3.26
2018-02-03T16:57:22.693Z,3.25
2018-02-03T16:59:50.912Z,3.25
2018-02-03T17:02:19.148Z,3.22
2018-02-03T17:04:47.433Z,3.14
2018-02-03T17:07:15.652Z,3.13
2018-02-03T17:09:44.617Z,3.10
2018-02-03T17:12:12.843Z,3.11
2018-02-03T17:14:41.110Z,3.10
2018-02-03T17:17:09.390Z,3.10
2018-02-03T17:19:37.667Z,3.11
2018-02-03T17:22:05.927Z,3.18
2018-02-03T17:24:34.928Z,3.34
2018-02-03T17:27:03.932Z,3.29
2018-02-03T17:29:32.194Z,3.14
2018-02-03T17:32:00.410Z,3.27
2018-02-03T17:34:28.650Z,3.20
2018-02-03T17:37:03.307Z,3.04
2018-02-03T17:39:31.565Z,3.04
2018-02-03T17:41:59.857Z,3.00
2018-02-03T17:44:28.057Z,2.96
2018-02-03T17:47:01.865Z,3.01
2018-02-03T17:49:30.059Z,2.93
2018-02-03T17:51:58.366Z,3.01
2018-02-03T17:54:27.385Z,3.04
2018-02-03T17:57:01.039Z,2.98
2018-02-03T17:59:29.233Z,2.93
2018-02-03T18:01:57.469Z,2.88
2018-02-03T18:04:25.648Z,2.83
2018-02-03T18:06:59.275Z,2.89
2018-02-03T18:09:28.335Z,2.94
2018-02-03T18:11:56.530Z,2.96
2018-02-03T18:14:24.722Z,2.94
2018-02-03T18:16:53.730Z,2.93
2018-02-03T18:19:22.731Z,2.92
2018-02-03T18:21:50.956Z,2.89
2018-02-03T18:24:19.149Z,2.95
2018-02-03T18:26:47.364Z,2.97
2018-02-03T18:29:15.597Z,2.85
2018-02-03T18:31:43.797Z,2.90
2018-02-03T18:34:12.749Z,2.98
2018-02-03T18:36:40.978Z,2.96
2018-02-03T18:39:09.235Z,2.86
2018-02-03T18:41:38.236Z,2.85
2018-02-03T18:44:07.259Z,2.90
2018-02-03T18:46:35.521Z,3.16
2018-02-03T18:49:03.711Z,3.16
2018-02-03T18:51:31.963Z,3.32
2018-02-03T18:54:00.963Z,3.29
2018-02-03T18:56:29.169Z,3.25
2018-02-03T18:58:57.391Z,3.23
2018-02-03T19:01:26.381Z,3.24
2018-02-03T19:03:54.633Z,3.14
2018-02-03T19:06:22.828Z,3.02
2018-02-03T19:08:51.019Z,3.09
2018-02-03T19:11:20.002Z,3.03
2018-02-03T19:13:48.188Z,2.95
2018-02-03T19:16:17.152Z,2.96
2018-02-03T19:18:45.369Z,2.92
2018-02-03T19:21:13.600Z,2.92
2018-02-03T19:23:41.786Z,2.90
2018-02-03T19:26:09.988Z,2.90
2018-02-03T19:28:38.960Z,2.91
2018-02-03T19:31:07.127Z,2.94
2018-02-03T19:33:35.332Z,2.99
2018-02-03T19:36:04.348Z,3.04
2018-02-03T19:38:32.545Z,3.03
2018-02-03T19:41:00.743Z,3.04
2018-02-03T19:43:28.948Z,3.01
2018-02-03T19:45:57.944Z,3.02
2018-02-03T19:48:26.949Z,3.10
2018-02-03T19:50:55.158Z,3.03
2018-02-03T19:53:23.331Z,2.96
2018-02-03T19:55:51.560Z,2.98
2018-02-03T19:58:20.531Z,2.96
2018-02-03T20:00:48.707Z,2.97
2018-02-03T20:03:16.993Z,2.98
2018-02-03T20:05:46.005Z,2.95
2018-02-03T20:08:14.198Z,2.94
2018-02-03T20:10:42.376Z,2.95
2018-02-03T20:13:10.552Z,2.97
2018-02-03T20:15:38.779Z,2.96
2018-02-03T20:18:06.953Z,2.98
2018-02-03T20:20:35.221Z,3.01
2018-02-03T20:23:03.405Z,3.03
2018-02-03T20:25:31.597Z,3.04
2018-02-03T20:28:00.567Z,3.08
2018-02-03T20:30:32.977Z,3.03
2018-02-03T20:33:04.832Z,3.03
2018-02-03T20:35:33.250Z,3.05
2018-02-03T20:38:05.556Z,3.07
2018-02-03T20:40:33.742Z,3.04
2018-02-03T20:43:07.322Z,3.02
2018-02-03T20:45:35.536Z,3.00
2018-02-03T20:48:04.010Z,2.99
2018-02-03T20:50:33.248Z,2.96
2018-02-03T20:53:01.474Z,2.97
2018-02-03T20:55:32.266Z,3.00
2018-02-03T20:58:00.493Z,3.00
2018-02-03T21:00:30.564Z,2.99
2018-02-03T21:02:58.756Z,3.04
2018-02-03T21:05:27.916Z,3.05
2018-02-03T21:07:56.111Z,3.12
2018-02-03T21:10:24.297Z,3.08
2018-02-03T21:12:53.249Z,3.11
2018-02-03T21:15:21.497Z,3.13
2018-02-03T21:17:50.520Z,3.13
2018-02-03T21:20:18.759Z,3.09
2018-02-03T21:22:46.973Z,3.13
2018-02-03T21:25:15.201Z,3.11
2018-02-03T21:27:43.409Z,3.07
2018-02-03T21:30:12.382Z,3.03
2018-02-03T21:32:41.368Z,3.02
2018-02-03T21:35:09.570Z,2.92
2018-02-03T21:37:38.545Z,2.85
2018-02-03T21:40:07.525Z,2.79
2018-02-03T21:42:35.776Z,2.81
2018-02-03T21:45:03.997Z,2.81
2018-02-03T21:47:32.974Z,2.70
2018-02-03T21:50:01.194Z,2.63
2018-02-03T21:52:29.399Z,2.57
2018-02-03T21:54:57.631Z,2.47
2018-02-03T21:57:26.604Z,2.39
2018-02-03T21:59:54.795Z,2.29
2018-02-03T22:02:23.957Z,2.25
2018-02-03T22:04:52.161Z,2.18
2018-02-03T22:07:21.116Z,2.12
2018-02-03T22:09:49.319Z,2.04
2018-02-03T22:12:18.295Z,1.98
2018-02-03T22:14:46.479Z,1.91
2018-02-03T22:17:14.718Z,1.82
2018-02-03T22:19:42.925Z,1.78
2018-02-03T22:22:11.124Z,1.75
2018-02-03T22:24:40.092Z,1.67
2018-02-03T22:27:08.277Z,1.63
2018-02-03T22:29:36.443Z,1.66
2018-02-03T22:32:04.617Z,1.66
2018-02-03T22:34:33.206Z,1.68
2018-02-03T22:37:01.452Z,1.71
2018-02-03T22:39:29.613Z,1.73
2018-02-03T22:41:57.774Z,1.73
2018-02-03T22:44:25.960Z,1.69
2018-02-03T22:46:54.121Z,1.72
2018-02-03T22:49:22.308Z,1.76
2018-02-03T22:51:50.508Z,1.70
2018-02-03T22:54:18.686Z,1.68
2018-02-03T22:56:46.849Z,1.65
2018-02-03T22:59:15.134Z,1.68
2018-02-03T23:01:43.306Z,1.66
2018-02-03T23:04:11.480Z,1.61
2018-02-03T23:06:39.671Z,1.55
2018-02-03T23:09:07.860Z,1.52
2018-02-03T23:11:36.799Z,1.49
2018-02-03T23:14:04.978Z,1.51
2018-02-03T23:16:33.171Z,1.52
2018-02-03T23:19:01.357Z,1.52
2018-02-03T23:21:29.533Z,1.55
2018-02-03T23:23:57.726Z,1.55
2018-02-03T23:26:26.664Z,1.57
2018-02-03T23:28:54.889Z,1.57
2018-02-03T23:31:23.055Z,1.60
2018-02-03T23:33:51.242Z,1.63
2018-02-03T23:36:19.423Z,1.62
2018-02-03T23:38:48.380Z,1.61
2018-02-03T23:41:16.547Z,1.57
2018-02-03T23:43:44.735Z,1.58
2018-02-03T23:46:12.917Z,1.59
2018-02-03T23:48:41.103Z,1.63
2018-02-03T23:51:09.277Z,1.59
2018-02-03T23:53:37.446Z,1.59
2018-02-03T23:56:05.614Z,1.61
2018-02-03T23:58:33.804Z,1.65
